sensor_id;sensor_type;location;lat;lon;timestamp;temperature;humidity
21037;DHT22;10677;50.942;4.028;2023-08-17T00:02:00;20.10;99.90
21037;DHT22;10677;50.942;4.028;2023-08-17T00:04:26;19.80;99.90
21037;DHT22;10677;50.942;4.028;2023-08-17T00:06:51;19.50;99.90
21037;DHT22;10677;50.942;4.028;2023-08-17T00:09:17;19.60;99.90
21037;DHT22;10677;50.942;4.028;2023-08-17T00:11:43;19.70;99.90
21037;DHT22;10677;50.942;4.028;2023-08-17T00:14:08;19.80;99.90
21037;DHT22;10677;50.942;4.028;2023-08-17T00:16:35;19.60;99.90
21037;DHT22;10677;50.942;4.028;2023-08-17T00:19:01;19.50;99.90
21037;DHT22;10677;50.942;4.028;2023-08-17T00:21:27;19.60;99.90
21037;DHT22;10677;50.942;4.028;2023-08-17T00:23:53;19.50;99.90
21037;DHT22;10677;50.942;4.028;2023-08-17T00:26:18;19.60;99.90
21037;DHT22;10677;50.942;4.028;2023-08-17T00:28:45;19.70;99.90
21037;DHT22;10677;50.942;4.028;2023-08-17T00:31:11;19.60;99.90
21037;DHT22;10677;50.942;4.028;2023-08-17T00:33:37;19.70;99.90
21037;DHT22;10677;50.942;4.028;2023-08-17T00:36:02;19.80;99.90
21037;DHT22;10677;50.942;4.028;2023-08-17T00:38:28;19.90;99.90
21037;DHT22;10677;50.942;4.028;2023-08-17T00:40:54;19.80;99.90
21037;DHT22;10677;50.942;4.028;2023-08-17T00:43:21;19.50;99.90
21037;DHT22;10677;50.942;4.028;2023-08-17T00:45:47;19.20;99.90
21037;DHT22;10677;50.942;4.028;2023-08-17T00:48:13;19.40;99.90
21037;DHT22;10677;50.942;4.028;2023-08-17T00:50:39;19.60;99.90
21037;DHT22;10677;50.942;4.028;2023-08-17T00:53:05;19.70;99.90
21037;DHT22;10677;50.942;4.028;2023-08-17T00:55:33;19.80;99.90
21037;DHT22;10677;50.942;4.028;2023-08-17T00:57:59;19.80;99.90
21037;DHT22;10677;50.942;4.028;2023-08-17T01:00:25;19.60;99.90
21037;DHT22;10677;50.942;4.028;2023-08-17T01:02:54;19.70;99.90
21037;DHT22;10677;50.942;4.028;2023-08-17T01:05:20;19.60;99.90
21037;DHT22;10677;50.942;4.028;2023-08-17T01:07:47;19.30;99.90
21037;DHT22;10677;50.942;4.028;2023-08-17T01:10:12;19.10;99.90
21037;DHT22;10677;50.942;4.028;2023-08-17T01:12:48;19.10;99.90
21037;DHT22;10677;50.942;4.028;2023-08-17T01:15:23;19.20;99.90
21037;DHT22;10677;50.942;4.028;2023-08-17T01:18:17;19.30;99.90
21037;DHT22;10677;50.942;4.028;2023-08-17T01:20:45;19.40;99.90
21037;DHT22;10677;50.942;4.028;2023-08-17T01:23:11;19.20;99.90
21037;DHT22;10677;50.942;4.028;2023-08-17T01:25:37;19.00;99.90
21037;DHT22;10677;50.942;4.028;2023-08-17T01:28:04;18.90;99.90
21037;DHT22;10677;50.942;4.028;2023-08-17T01:30:37;18.60;99.90
21037;DHT22;10677;50.942;4.028;2023-08-17T01:33:07;18.50;99.90
21037;DHT22;10677;50.942;4.028;2023-08-17T01:35:48;18.50;99.90
21037;DHT22;10677;50.942;4.028;2023-08-17T01:38:18;18.70;99.90
21037;DHT22;10677;50.942;4.028;2023-08-17T01:40:45;19.00;99.90
21037;DHT22;10677;50.942;4.028;2023-08-17T01:43:12;19.20;99.90
21037;DHT22;10677;50.942;4.028;2023-08-17T01:45:39;19.10;99.90
21037;DHT22;10677;50.942;4.028;2023-08-17T01:48:04;19.00;99.90
21037;DHT22;10677;50.942;4.028;2023-08-17T01:50:30;18.70;99.90
21037;DHT22;10677;50.942;4.028;2023-08-17T01:52:56;18.70;99.90
21037;DHT22;10677;50.942;4.028;2023-08-17T01:55:22;18.90;99.90
21037;DHT22;10677;50.942;4.028;2023-08-17T01:57:50;19.00;99.90
21037;DHT22;10677;50.942;4.028;2023-08-17T02:00:16;19.30;99.90
21037;DHT22;10677;50.942;4.028;2023-08-17T02:02:41;19.50;99.90
21037;DHT22;10677;50.942;4.028;2023-08-17T02:05:08;19.30;99.90
21037;DHT22;10677;50.942;4.028;2023-08-17T02:07:34;19.00;99.90
21037;DHT22;10677;50.942;4.028;2023-08-17T02:09:59;18.90;99.90
21037;DHT22;10677;50.942;4.028;2023-08-17T02:12:25;18.80;99.90
21037;DHT22;10677;50.942;4.028;2023-08-17T02:14:51;18.80;99.90
21037;DHT22;10677;50.942;4.028;2023-08-17T02:17:16;19.00;99.90
21037;DHT22;10677;50.942;4.028;2023-08-17T02:19:44;19.20;99.90
21037;DHT22;10677;50.942;4.028;2023-08-17T02:22:10;19.40;99.90
21037;DHT22;10677;50.942;4.028;2023-08-17T02:24:36;19.70;99.90
21037;DHT22;10677;50.942;4.028;2023-08-17T02:27:02;19.80;99.90
21037;DHT22;10677;50.942;4.028;2023-08-17T02:29:27;19.70;99.90
21037;DHT22;10677;50.942;4.028;2023-08-17T02:31:53;19.70;99.90
21037;DHT22;10677;50.942;4.028;2023-08-17T02:34:19;19.50;99.90
21037;DHT22;10677;50.942;4.028;2023-08-17T02:36:44;19.40;99.90
21037;DHT22;10677;50.942;4.028;2023-08-17T02:39:10;19.40;99.90
21037;DHT22;10677;50.942;4.028;2023-08-17T02:41:36;19.40;99.90
21037;DHT22;10677;50.942;4.028;2023-08-17T02:44:02;19.40;99.90
21037;DHT22;10677;50.942;4.028;2023-08-17T02:46:28;19.40;99.90
21037;DHT22;10677;50.942;4.028;2023-08-17T02:48:54;19.50;99.90
21037;DHT22;10677;50.942;4.028;2023-08-17T02:51:19;19.50;99.90
21037;DHT22;10677;50.942;4.028;2023-08-17T02:53:45;19.40;99.90
21037;DHT22;10677;50.942;4.028;2023-08-17T02:56:11;19.20;99.90
21037;DHT22;10677;50.942;4.028;2023-08-17T02:58:40;19.20;99.90
21037;DHT22;10677;50.942;4.028;2023-08-17T03:01:07;19.20;99.90
21037;DHT22;10677;50.942;4.028;2023-08-17T03:03:32;19.30;99.90
21037;DHT22;10677;50.942;4.028;2023-08-17T03:05:58;19.30;99.90
21037;DHT22;10677;50.942;4.028;2023-08-17T03:08:24;19.30;99.90
21037;DHT22;10677;50.942;4.028;2023-08-17T03:10:49;19.40;99.90
21037;DHT22;10677;50.942;4.028;2023-08-17T03:13:15;19.30;99.90
21037;DHT22;10677;50.942;4.028;2023-08-17T03:15:41;19.20;99.90
21037;DHT22;10677;50.942;4.028;2023-08-17T03:18:06;19.20;99.90
21037;DHT22;10677;50.942;4.028;2023-08-17T03:20:32;19.00;99.90
21037;DHT22;10677;50.942;4.028;2023-08-17T03:22:58;19.10;99.90
21037;DHT22;10677;50.942;4.028;2023-08-17T03:25:24;19.20;99.90
21037;DHT22;10677;50.942;4.028;2023-08-17T03:27:50;19.00;99.90
21037;DHT22;10677;50.942;4.028;2023-08-17T03:30:15;19.20;99.90
21037;DHT22;10677;50.942;4.028;2023-08-17T03:32:41;19.30;99.90
21037;DHT22;10677;50.942;4.028;2023-08-17T03:35:07;19.20;99.90
21037;DHT22;10677;50.942;4.028;2023-08-17T03:37:33;19.40;99.90
21037;DHT22;10677;50.942;4.028;2023-08-17T03:39:59;19.20;99.90
21037;DHT22;10677;50.942;4.028;2023-08-17T03:42:26;19.10;99.90
21037;DHT22;10677;50.942;4.028;2023-08-17T03:44:52;19.20;99.90
21037;DHT22;10677;50.942;4.028;2023-08-17T03:47:18;19.40;99.90
21037;DHT22;10677;50.942;4.028;2023-08-17T03:49:43;19.50;99.90
21037;DHT22;10677;50.942;4.028;2023-08-17T03:52:09;19.60;99.90
21037;DHT22;10677;50.942;4.028;2023-08-17T03:54:35;19.40;99.90
21037;DHT22;10677;50.942;4.028;2023-08-17T03:57:01;19.30;99.90
21037;DHT22;10677;50.942;4.028;2023-08-17T03:59:27;19.50;99.90
21037;DHT22;10677;50.942;4.028;2023-08-17T04:01:53;19.60;99.90
21037;DHT22;10677;50.942;4.028;2023-08-17T04:04:19;19.50;99.90
21037;DHT22;10677;50.942;4.028;2023-08-17T04:06:44;19.30;99.90
21037;DHT22;10677;50.942;4.028;2023-08-17T04:09:10;19.30;99.90
21037;DHT22;10677;50.942;4.028;2023-08-17T04:11:36;19.30;99.90
21037;DHT22;10677;50.942;4.028;2023-08-17T04:14:06;19.20;99.90
21037;DHT22;10677;50.942;4.028;2023-08-17T04:16:32;19.40;99.90
21037;DHT22;10677;50.942;4.028;2023-08-17T04:18:58;19.30;99.90
21037;DHT22;10677;50.942;4.028;2023-08-17T04:21:24;19.30;99.90
21037;DHT22;10677;50.942;4.028;2023-08-17T04:23:49;19.20;99.90
21037;DHT22;10677;50.942;4.028;2023-08-17T04:26:15;19.40;99.90
21037;DHT22;10677;50.942;4.028;2023-08-17T04:28:41;19.60;99.90
21037;DHT22;10677;50.942;4.028;2023-08-17T04:31:06;19.50;99.90
21037;DHT22;10677;50.942;4.028;2023-08-17T04:33:32;19.50;99.90
21037;DHT22;10677;50.942;4.028;2023-08-17T04:35:57;19.40;99.90
21037;DHT22;10677;50.942;4.028;2023-08-17T04:38:25;19.30;99.90
21037;DHT22;10677;50.942;4.028;2023-08-17T04:40:50;19.30;99.90
21037;DHT22;10677;50.942;4.028;2023-08-17T04:43:16;19.30;99.90
21037;DHT22;10677;50.942;4.028;2023-08-17T04:45:42;19.40;99.90
21037;DHT22;10677;50.942;4.028;2023-08-17T04:48:08;19.60;99.90
21037;DHT22;10677;50.942;4.028;2023-08-17T04:50:33;19.50;99.90
21037;DHT22;10677;50.942;4.028;2023-08-17T04:52:59;19.40;99.90
21037;DHT22;10677;50.942;4.028;2023-08-17T04:55:24;19.40;99.90
21037;DHT22;10677;50.942;4.028;2023-08-17T04:57:50;19.30;99.90
21037;DHT22;10677;50.942;4.028;2023-08-17T05:00:16;19.20;99.90
21037;DHT22;10677;50.942;4.028;2023-08-17T05:02:42;19.30;99.90
21037;DHT22;10677;50.942;4.028;2023-08-17T05:05:10;19.30;99.90
21037;DHT22;10677;50.942;4.028;2023-08-17T05:07:36;19.10;99.90
21037;DHT22;10677;50.942;4.028;2023-08-17T05:10:02;19.20;99.90
21037;DHT22;10677;50.942;4.028;2023-08-17T05:12:29;19.20;99.90
21037;DHT22;10677;50.942;4.028;2023-08-17T05:14:54;19.30;99.90
21037;DHT22;10677;50.942;4.028;2023-08-17T05:17:20;19.30;99.90
21037;DHT22;10677;50.942;4.028;2023-08-17T05:19:46;19.40;99.90
21037;DHT22;10677;50.942;4.028;2023-08-17T05:22:12;19.40;99.90
21037;DHT22;10677;50.942;4.028;2023-08-17T05:24:40;19.40;99.90
21037;DHT22;10677;50.942;4.028;2023-08-17T05:27:06;19.30;99.90
21037;DHT22;10677;50.942;4.028;2023-08-17T05:29:31;19.30;99.90
21037;DHT22;10677;50.942;4.028;2023-08-17T05:31:58;19.60;99.90
21037;DHT22;10677;50.942;4.028;2023-08-17T05:34:24;19.60;99.90
21037;DHT22;10677;50.942;4.028;2023-08-17T05:36:49;19.70;99.90
21037;DHT22;10677;50.942;4.028;2023-08-17T05:39:15;19.60;99.90
21037;DHT22;10677;50.942;4.028;2023-08-17T05:41:41;19.70;99.90
21037;DHT22;10677;50.942;4.028;2023-08-17T05:44:06;19.70;99.90
21037;DHT22;10677;50.942;4.028;2023-08-17T05:46:33;19.70;99.90
21037;DHT22;10677;50.942;4.028;2023-08-17T05:48:59;19.80;99.90
21037;DHT22;10677;50.942;4.028;2023-08-17T05:51:25;19.90;99.90
21037;DHT22;10677;50.942;4.028;2023-08-17T05:53:51;19.80;99.90
21037;DHT22;10677;50.942;4.028;2023-08-17T05:56:16;19.80;99.90
21037;DHT22;10677;50.942;4.028;2023-08-17T05:58:42;19.80;99.90
21037;DHT22;10677;50.942;4.028;2023-08-17T06:01:09;19.70;99.90
21037;DHT22;10677;50.942;4.028;2023-08-17T06:03:35;19.60;99.90
21037;DHT22;10677;50.942;4.028;2023-08-17T06:06:02;19.80;99.90
21037;DHT22;10677;50.942;4.028;2023-08-17T06:08:28;20.00;99.90
21037;DHT22;10677;50.942;4.028;2023-08-17T06:10:54;20.10;99.90
21037;DHT22;10677;50.942;4.028;2023-08-17T06:13:20;20.10;99.90
21037;DHT22;10677;50.942;4.028;2023-08-17T06:15:46;20.00;99.90
21037;DHT22;10677;50.942;4.028;2023-08-17T06:18:11;20.00;99.90
21037;DHT22;10677;50.942;4.028;2023-08-17T06:20:37;20.10;99.90
21037;DHT22;10677;50.942;4.028;2023-08-17T06:23:04;20.30;99.90
21037;DHT22;10677;50.942;4.028;2023-08-17T06:25:30;20.50;99.90
21037;DHT22;10677;50.942;4.028;2023-08-17T06:27:55;20.50;99.90
21037;DHT22;10677;50.942;4.028;2023-08-17T06:30:22;20.60;99.90
21037;DHT22;10677;50.942;4.028;2023-08-17T06:32:47;20.50;99.90
21037;DHT22;10677;50.942;4.028;2023-08-17T06:35:13;20.50;99.90
21037;DHT22;10677;50.942;4.028;2023-08-17T06:37:39;20.30;99.90
21037;DHT22;10677;50.942;4.028;2023-08-17T06:40:05;20.10;99.90
21037;DHT22;10677;50.942;4.028;2023-08-17T06:42:31;20.30;99.90
21037;DHT22;10677;50.942;4.028;2023-08-17T06:44:57;20.50;99.90
21037;DHT22;10677;50.942;4.028;2023-08-17T06:47:23;20.40;99.90
21037;DHT22;10677;50.942;4.028;2023-08-17T06:49:49;20.40;99.90
21037;DHT22;10677;50.942;4.028;2023-08-17T06:52:14;20.60;99.90
21037;DHT22;10677;50.942;4.028;2023-08-17T06:54:41;20.70;99.90
21037;DHT22;10677;50.942;4.028;2023-08-17T06:57:08;20.70;99.90
21037;DHT22;10677;50.942;4.028;2023-08-17T06:59:34;20.90;99.90
21037;DHT22;10677;50.942;4.028;2023-08-17T07:02:00;21.20;99.90
21037;DHT22;10677;50.942;4.028;2023-08-17T07:04:26;21.30;99.90
21037;DHT22;10677;50.942;4.028;2023-08-17T07:06:52;21.20;99.90
21037;DHT22;10677;50.942;4.028;2023-08-17T07:09:17;21.20;99.90
21037;DHT22;10677;50.942;4.028;2023-08-17T07:11:44;21.00;99.90
21037;DHT22;10677;50.942;4.028;2023-08-17T07:14:10;20.90;99.90
21037;DHT22;10677;50.942;4.028;2023-08-17T07:16:35;20.60;99.90
21037;DHT22;10677;50.942;4.028;2023-08-17T07:19:02;20.60;99.90
21037;DHT22;10677;50.942;4.028;2023-08-17T07:21:28;20.60;99.90
21037;DHT22;10677;50.942;4.028;2023-08-17T07:23:55;20.60;99.90
21037;DHT22;10677;50.942;4.028;2023-08-17T07:26:21;20.50;99.90
21037;DHT22;10677;50.942;4.028;2023-08-17T07:28:48;20.60;99.90
21037;DHT22;10677;50.942;4.028;2023-08-17T07:31:14;20.70;99.90
21037;DHT22;10677;50.942;4.028;2023-08-17T07:33:40;20.70;99.90
21037;DHT22;10677;50.942;4.028;2023-08-17T07:36:06;20.70;99.90
21037;DHT22;10677;50.942;4.028;2023-08-17T07:38:32;20.80;99.90
21037;DHT22;10677;50.942;4.028;2023-08-17T07:40:58;20.80;99.90
21037;DHT22;10677;50.942;4.028;2023-08-17T07:43:24;20.70;99.90
21037;DHT22;10677;50.942;4.028;2023-08-17T07:45:56;20.70;99.90
21037;DHT22;10677;50.942;4.028;2023-08-17T07:48:22;20.60;99.90
21037;DHT22;10677;50.942;4.028;2023-08-17T07:50:52;20.70;99.90
21037;DHT22;10677;50.942;4.028;2023-08-17T07:53:18;20.90;99.90
21037;DHT22;10677;50.942;4.028;2023-08-17T07:55:44;21.00;99.90
21037;DHT22;10677;50.942;4.028;2023-08-17T07:58:10;20.90;99.90
21037;DHT22;10677;50.942;4.028;2023-08-17T08:00:36;20.80;99.90
21037;DHT22;10677;50.942;4.028;2023-08-17T08:03:02;20.70;99.90
21037;DHT22;10677;50.942;4.028;2023-08-17T08:05:28;20.70;99.90
21037;DHT22;10677;50.942;4.028;2023-08-17T08:07:53;20.80;99.90
21037;DHT22;10677;50.942;4.028;2023-08-17T08:10:19;21.00;99.90
21037;DHT22;10677;50.942;4.028;2023-08-17T08:12:45;20.90;99.90
21037;DHT22;10677;50.942;4.028;2023-08-17T08:15:10;20.60;99.90
21037;DHT22;10677;50.942;4.028;2023-08-17T08:17:36;20.60;99.90
21037;DHT22;10677;50.942;4.028;2023-08-17T08:20:03;20.60;99.90
21037;DHT22;10677;50.942;4.028;2023-08-17T08:22:29;20.80;99.90
21037;DHT22;10677;50.942;4.028;2023-08-17T08:24:54;20.90;99.90
21037;DHT22;10677;50.942;4.028;2023-08-17T08:27:20;20.90;99.90
21037;DHT22;10677;50.942;4.028;2023-08-17T08:29:46;20.90;99.90
21037;DHT22;10677;50.942;4.028;2023-08-17T08:32:12;20.90;99.90
21037;DHT22;10677;50.942;4.028;2023-08-17T08:34:37;21.00;99.90
21037;DHT22;10677;50.942;4.028;2023-08-17T08:37:03;21.00;99.90
21037;DHT22;10677;50.942;4.028;2023-08-17T08:39:29;21.10;99.90
21037;DHT22;10677;50.942;4.028;2023-08-17T08:41:55;21.20;99.90
21037;DHT22;10677;50.942;4.028;2023-08-17T08:44:21;21.30;99.90
21037;DHT22;10677;50.942;4.028;2023-08-17T08:46:48;21.50;99.90
21037;DHT22;10677;50.942;4.028;2023-08-17T08:49:19;21.70;99.90
21037;DHT22;10677;50.942;4.028;2023-08-17T08:51:49;21.80;99.90
21037;DHT22;10677;50.942;4.028;2023-08-17T08:54:20;21.70;99.90
21037;DHT22;10677;50.942;4.028;2023-08-17T08:56:49;21.80;99.90
21037;DHT22;10677;50.942;4.028;2023-08-17T08:59:19;21.90;99.90
21037;DHT22;10677;50.942;4.028;2023-08-17T09:01:45;22.20;99.90
21037;DHT22;10677;50.942;4.028;2023-08-17T09:04:11;22.30;99.90
21037;DHT22;10677;50.942;4.028;2023-08-17T09:06:38;22.30;99.90
21037;DHT22;10677;50.942;4.028;2023-08-17T09:09:06;22.30;99.90
21037;DHT22;10677;50.942;4.028;2023-08-17T09:11:33;22.40;99.90
21037;DHT22;10677;50.942;4.028;2023-08-17T09:13:58;22.10;99.90
21037;DHT22;10677;50.942;4.028;2023-08-17T09:16:24;21.80;99.90
21037;DHT22;10677;50.942;4.028;2023-08-17T09:18:52;21.70;99.90
21037;DHT22;10677;50.942;4.028;2023-08-17T09:21:23;21.60;99.90
21037;DHT22;10677;50.942;4.028;2023-08-17T09:23:52;21.70;99.90
21037;DHT22;10677;50.942;4.028;2023-08-17T09:26:19;21.70;99.90
21037;DHT22;10677;50.942;4.028;2023-08-17T09:28:46;21.80;99.90
21037;DHT22;10677;50.942;4.028;2023-08-17T09:31:11;21.80;99.90
21037;DHT22;10677;50.942;4.028;2023-08-17T09:33:37;21.80;99.90
21037;DHT22;10677;50.942;4.028;2023-08-17T09:36:03;22.00;99.90
21037;DHT22;10677;50.942;4.028;2023-08-17T09:38:29;22.50;99.90
21037;DHT22;10677;50.942;4.028;2023-08-17T09:40:57;22.70;99.90
21037;DHT22;10677;50.942;4.028;2023-08-17T09:43:22;23.10;99.90
21037;DHT22;10677;50.942;4.028;2023-08-17T09:45:49;23.10;99.90
21037;DHT22;10677;50.942;4.028;2023-08-17T09:48:19;22.80;99.90
21037;DHT22;10677;50.942;4.028;2023-08-17T09:50:46;22.50;99.90
21037;DHT22;10677;50.942;4.028;2023-08-17T09:53:13;22.30;99.90
21037;DHT22;10677;50.942;4.028;2023-08-17T09:55:41;22.30;99.90
21037;DHT22;10677;50.942;4.028;2023-08-17T09:58:07;22.30;99.90
21037;DHT22;10677;50.942;4.028;2023-08-17T10:00:34;22.30;99.90
21037;DHT22;10677;50.942;4.028;2023-08-17T10:03:02;22.50;99.90
21037;DHT22;10677;50.942;4.028;2023-08-17T10:05:31;22.60;99.90
21037;DHT22;10677;50.942;4.028;2023-08-17T10:07:59;22.50;99.90
21037;DHT22;10677;50.942;4.028;2023-08-17T10:10:27;22.50;99.90
21037;DHT22;10677;50.942;4.028;2023-08-17T10:13:05;22.60;99.90
21037;DHT22;10677;50.942;4.028;2023-08-17T10:15:37;22.80;99.90
21037;DHT22;10677;50.942;4.028;2023-08-17T10:18:29;22.90;99.90
21037;DHT22;10677;50.942;4.028;2023-08-17T10:21:05;23.10;99.90
21037;DHT22;10677;50.942;4.028;2023-08-17T10:23:32;23.10;99.90
21037;DHT22;10677;50.942;4.028;2023-08-17T10:26:02;22.80;99.90
21037;DHT22;10677;50.942;4.028;2023-08-17T10:28:31;22.80;99.90
21037;DHT22;10677;50.942;4.028;2023-08-17T10:30:57;22.70;99.90
21037;DHT22;10677;50.942;4.028;2023-08-17T10:33:24;22.60;99.90
21037;DHT22;10677;50.942;4.028;2023-08-17T10:35:50;22.60;99.90
21037;DHT22;10677;50.942;4.028;2023-08-17T10:38:16;22.50;99.90
21037;DHT22;10677;50.942;4.028;2023-08-17T10:40:43;22.70;99.90
21037;DHT22;10677;50.942;4.028;2023-08-17T10:43:09;22.90;99.90
21037;DHT22;10677;50.942;4.028;2023-08-17T10:45:35;23.30;99.90
21037;DHT22;10677;50.942;4.028;2023-08-17T10:50:36;24.10;99.90
21037;DHT22;10677;50.942;4.028;2023-08-17T10:53:11;24.40;99.90
21037;DHT22;10677;50.942;4.028;2023-08-17T10:55:40;24.50;99.90
21037;DHT22;10677;50.942;4.028;2023-08-17T10:58:06;24.70;99.90
21037;DHT22;10677;50.942;4.028;2023-08-17T11:00:39;24.90;99.90
21037;DHT22;10677;50.942;4.028;2023-08-17T11:03:08;25.20;99.90
21037;DHT22;10677;50.942;4.028;2023-08-17T11:11:04;24.80;99.90
21037;DHT22;10677;50.942;4.028;2023-08-17T11:13:39;24.70;99.90
21037;DHT22;10677;50.942;4.028;2023-08-17T11:16:06;24.70;99.90
21037;DHT22;10677;50.942;4.028;2023-08-17T11:18:33;23.90;99.90
21037;DHT22;10677;50.942;4.028;2023-08-17T11:21:00;23.50;99.90
21037;DHT22;10677;50.942;4.028;2023-08-17T11:23:28;23.70;99.90
21037;DHT22;10677;50.942;4.028;2023-08-17T11:25:55;23.80;99.90
21037;DHT22;10677;50.942;4.028;2023-08-17T11:28:21;23.90;99.90
21037;DHT22;10677;50.942;4.028;2023-08-17T11:30:57;23.80;99.90
21037;DHT22;10677;50.942;4.028;2023-08-17T11:33:28;23.90;99.90
21037;DHT22;10677;50.942;4.028;2023-08-17T11:35:55;24.10;99.90
21037;DHT22;10677;50.942;4.028;2023-08-17T11:38:21;24.40;99.90
21037;DHT22;10677;50.942;4.028;2023-08-17T11:40:47;24.30;99.90
21037;DHT22;10677;50.942;4.028;2023-08-17T11:43:13;24.40;99.90
21037;DHT22;10677;50.942;4.028;2023-08-17T11:45:39;24.20;99.90
21037;DHT22;10677;50.942;4.028;2023-08-17T11:48:05;24.10;99.90
21037;DHT22;10677;50.942;4.028;2023-08-17T11:50:31;23.90;99.90
21037;DHT22;10677;50.942;4.028;2023-08-17T11:52:59;23.70;99.90
21037;DHT22;10677;50.942;4.028;2023-08-17T11:55:26;23.50;99.90
21037;DHT22;10677;50.942;4.028;2023-08-17T11:57:52;23.40;99.90
21037;DHT22;10677;50.942;4.028;2023-08-17T12:00:20;23.50;99.90
21037;DHT22;10677;50.942;4.028;2023-08-17T12:02:49;23.70;99.90
21037;DHT22;10677;50.942;4.028;2023-08-17T12:05:23;23.80;99.90
21037;DHT22;10677;50.942;4.028;2023-08-17T12:07:53;24.00;99.90
21037;DHT22;10677;50.942;4.028;2023-08-17T12:10:19;24.10;99.90
21037;DHT22;10677;50.942;4.028;2023-08-17T12:12:47;24.20;99.90
21037;DHT22;10677;50.942;4.028;2023-08-17T12:15:13;24.40;99.90
21037;DHT22;10677;50.942;4.028;2023-08-17T12:17:49;24.60;99.90
21037;DHT22;10677;50.942;4.028;2023-08-17T12:20:19;24.90;99.90
21037;DHT22;10677;50.942;4.028;2023-08-17T12:22:46;24.80;99.90
21037;DHT22;10677;50.942;4.028;2023-08-17T12:25:12;25.30;99.90
21037;DHT22;10677;50.942;4.028;2023-08-17T12:27:41;25.30;99.90
21037;DHT22;10677;50.942;4.028;2023-08-17T12:30:28;25.20;99.90
21037;DHT22;10677;50.942;4.028;2023-08-17T12:32:54;25.30;99.90
21037;DHT22;10677;50.942;4.028;2023-08-17T12:35:20;25.20;99.90
21037;DHT22;10677;50.942;4.028;2023-08-17T12:37:48;25.30;99.90
21037;DHT22;10677;50.942;4.028;2023-08-17T12:40:14;25.20;99.90
21037;DHT22;10677;50.942;4.028;2023-08-17T12:42:39;24.90;99.90
21037;DHT22;10677;50.942;4.028;2023-08-17T12:45:05;25.00;99.90
21037;DHT22;10677;50.942;4.028;2023-08-17T12:47:31;25.10;99.90
21037;DHT22;10677;50.942;4.028;2023-08-17T12:49:57;25.10;99.90
21037;DHT22;10677;50.942;4.028;2023-08-17T12:52:23;25.10;99.90
21037;DHT22;10677;50.942;4.028;2023-08-17T12:54:48;25.30;99.90
21037;DHT22;10677;50.942;4.028;2023-08-17T12:57:14;25.40;99.90
21037;DHT22;10677;50.942;4.028;2023-08-17T12:59:40;25.20;99.90
21037;DHT22;10677;50.942;4.028;2023-08-17T13:02:05;25.00;99.90
21037;DHT22;10677;50.942;4.028;2023-08-17T13:04:31;25.10;99.90
21037;DHT22;10677;50.942;4.028;2023-08-17T13:06:57;25.00;99.90
21037;DHT22;10677;50.942;4.028;2023-08-17T13:09:22;24.80;99.90
21037;DHT22;10677;50.942;4.028;2023-08-17T13:11:48;24.60;99.90
21037;DHT22;10677;50.942;4.028;2023-08-17T13:14:14;24.70;99.90
21037;DHT22;10677;50.942;4.028;2023-08-17T13:16:41;24.70;99.90
21037;DHT22;10677;50.942;4.028;2023-08-17T13:19:10;24.60;99.90
21037;DHT22;10677;50.942;4.028;2023-08-17T13:21:35;24.50;99.90
21037;DHT22;10677;50.942;4.028;2023-08-17T13:24:01;24.40;99.90
21037;DHT22;10677;50.942;4.028;2023-08-17T13:26:29;24.30;99.90
21037;DHT22;10677;50.942;4.028;2023-08-17T13:28:55;24.20;99.90
21037;DHT22;10677;50.942;4.028;2023-08-17T13:31:21;24.10;99.90
21037;DHT22;10677;50.942;4.028;2023-08-17T13:33:47;24.10;99.90
21037;DHT22;10677;50.942;4.028;2023-08-17T13:36:13;24.20;99.90
21037;DHT22;10677;50.942;4.028;2023-08-17T13:38:39;24.20;99.90
21037;DHT22;10677;50.942;4.028;2023-08-17T13:41:05;24.50;99.90
21037;DHT22;10677;50.942;4.028;2023-08-17T13:43:30;24.50;99.90
21037;DHT22;10677;50.942;4.028;2023-08-17T13:45:56;24.40;99.90
21037;DHT22;10677;50.942;4.028;2023-08-17T13:48:22;24.70;99.90
21037;DHT22;10677;50.942;4.028;2023-08-17T13:50:47;24.90;99.90
21037;DHT22;10677;50.942;4.028;2023-08-17T13:53:13;25.40;99.90
21037;DHT22;10677;50.942;4.028;2023-08-17T13:55:39;25.90;99.90
21037;DHT22;10677;50.942;4.028;2023-08-17T13:58:04;25.80;99.90
21037;DHT22;10677;50.942;4.028;2023-08-17T14:00:30;25.60;99.90
21037;DHT22;10677;50.942;4.028;2023-08-17T14:02:56;25.70;99.90
21037;DHT22;10677;50.942;4.028;2023-08-17T14:05:22;25.40;99.90
21037;DHT22;10677;50.942;4.028;2023-08-17T14:07:48;25.20;99.90
21037;DHT22;10677;50.942;4.028;2023-08-17T14:10:14;25.10;99.90
21037;DHT22;10677;50.942;4.028;2023-08-17T14:12:39;24.90;99.90
21037;DHT22;10677;50.942;4.028;2023-08-17T14:15:06;24.70;99.90
21037;DHT22;10677;50.942;4.028;2023-08-17T14:17:36;24.40;99.90
21037;DHT22;10677;50.942;4.028;2023-08-17T14:20:03;24.40;99.90
21037;DHT22;10677;50.942;4.028;2023-08-17T14:22:30;24.30;99.90
21037;DHT22;10677;50.942;4.028;2023-08-17T14:24:55;24.40;99.90
21037;DHT22;10677;50.942;4.028;2023-08-17T14:27:21;24.50;99.90
21037;DHT22;10677;50.942;4.028;2023-08-17T14:29:47;24.60;99.90
21037;DHT22;10677;50.942;4.028;2023-08-17T14:32:13;24.40;99.90
21037;DHT22;10677;50.942;4.028;2023-08-17T14:34:38;24.50;99.90
21037;DHT22;10677;50.942;4.028;2023-08-17T14:37:04;24.40;99.90
21037;DHT22;10677;50.942;4.028;2023-08-17T14:39:30;24.40;99.90
21037;DHT22;10677;50.942;4.028;2023-08-17T14:41:55;24.40;99.90
21037;DHT22;10677;50.942;4.028;2023-08-17T14:44:21;24.20;99.90
21037;DHT22;10677;50.942;4.028;2023-08-17T14:46:47;24.20;99.90
21037;DHT22;10677;50.942;4.028;2023-08-17T14:49:13;24.30;99.90
21037;DHT22;10677;50.942;4.028;2023-08-17T14:51:40;24.50;99.90
21037;DHT22;10677;50.942;4.028;2023-08-17T14:54:09;24.70;99.90
21037;DHT22;10677;50.942;4.028;2023-08-17T14:56:35;24.80;99.90
21037;DHT22;10677;50.942;4.028;2023-08-17T14:59:01;25.00;99.90
21037;DHT22;10677;50.942;4.028;2023-08-17T15:01:28;25.20;99.90
21037;DHT22;10677;50.942;4.028;2023-08-17T15:03:53;25.40;99.90
21037;DHT22;10677;50.942;4.028;2023-08-17T15:06:19;25.80;99.90
21037;DHT22;10677;50.942;4.028;2023-08-17T15:08:49;25.80;99.90
21037;DHT22;10677;50.942;4.028;2023-08-17T15:11:15;25.70;99.90
21037;DHT22;10677;50.942;4.028;2023-08-17T15:13:41;25.20;99.90
21037;DHT22;10677;50.942;4.028;2023-08-17T15:16:06;25.00;99.90
21037;DHT22;10677;50.942;4.028;2023-08-17T15:18:32;24.70;99.90
21037;DHT22;10677;50.942;4.028;2023-08-17T15:20:58;24.90;99.90
21037;DHT22;10677;50.942;4.028;2023-08-17T15:23:24;25.00;99.90
21037;DHT22;10677;50.942;4.028;2023-08-17T15:25:49;25.20;99.90
21037;DHT22;10677;50.942;4.028;2023-08-17T15:28:15;25.20;99.90
21037;DHT22;10677;50.942;4.028;2023-08-17T15:30:41;25.20;99.90
21037;DHT22;10677;50.942;4.028;2023-08-17T15:33:07;25.20;99.90
21037;DHT22;10677;50.942;4.028;2023-08-17T15:35:33;25.20;99.90